Time;durP1;ratioP1;P1;durP2;ratioP2;P2;SDS_P1;SDS_P2;PMS_P1;PMS_P2;Temp;Humidity;BMP_temperature;BMP_pressure;BME280_temperature;BME280_humidity;BME280_pressure;Samples;Min_cycle;Max_cycle;Signal;HPM_P1;HPM_P2
2022/09/09 00:01:09;;;;;;;;;;;;;;;;;;4941814;28;19918;-84
2022/09/09 00:03:34;;;;;;;;;;;;;;;;;;4943074;28;19914;-84
2022/09/09 00:05:59;;;;;;;;;;;;;;;;;;4946818;28;20418;-84
2022/09/09 00:08:24;;;;;;;;;;;;;;;;;;4949528;28;19914;-84
2022/09/09 00:10:51;;;;;;;;;;;;;;;;;;4945381;28;19961;-84
2022/09/09 00:13:16;;;;;;;;;;;;;;;;;;4946942;28;20424;-85
2022/09/09 00:15:42;;;;;;;;;;;;;;;;;;4945157;28;19961;-84
2022/09/09 00:18:09;;;;;;;;;;;;;;;;;;4942196;28;20427;-85
2022/09/09 00:20:34;;;;;;;;;;;;;;;;;;4944087;28;19926;-84
2022/09/09 00:22:59;;;;;;;;;;;;;;;;;;4944816;28;19918;-84
2022/09/09 00:25:24;;;;;;;;;;;;;;;;;;4942444;28;20376;-84
2022/09/09 00:27:49;;;;;;;;;;;;;;;;;;4944296;28;19929;-84
2022/09/09 00:30:16;;;;;;;;;;;;;;;;;;4940978;28;20374;-84
2022/09/09 00:32:41;;;;;;;;;;;;;;;;;;4942286;28;21271;-84
2022/09/09 00:35:06;;;;;;;;;;;;;;;;;;4938649;28;19923;-84
2022/09/09 00:37:35;;;;;;;;;;;;;;;;;;4938670;28;19915;-84
2022/09/09 00:40:00;;;;;;;;;;;;;;;;;;4944224;28;20356;-84
2022/09/09 00:42:25;;;;;;;;;;;;;;;;;;4941011;28;19926;-84
2022/09/09 00:44:50;;;;;;;;;;;;;;;;;;4942306;28;20003;-84
2022/09/09 00:47:16;;;;;;;;;;;;;;;;;;4944660;28;19914;-84
2022/09/09 00:49:41;;;;;;;;;;;;;;;;;;4944547;28;19929;-84
2022/09/09 00:52:06;;;;;;;;;;;;;;;;;;4943212;28;20005;-84
2022/09/09 00:54:32;;;;;;;;;;;;;;;;;;4944131;28;19921;-83
2022/09/09 00:56:57;;;;;;;;;;;;;;;;;;4942897;28;21407;-84
2022/09/09 00:59:22;;;;;;;;;;;;;;;;;;4942656;28;19918;-84
2022/09/09 01:01:47;;;;;;;;;;;;;;;;;;4942951;28;19922;-84
2022/09/09 01:04:15;;;;;;;;;;;;;;;;;;4939803;28;19961;-84
2022/09/09 01:06:41;;;;;;;;;;;;;;;;;;4940856;28;19923;-84
2022/09/09 01:09:06;;;;;;;;;;;;;;;;;;4943740;28;20005;-84
2022/09/09 01:11:31;;;;;;;;;;;;;;;;;;4945973;28;19918;-84
2022/09/09 01:13:58;;;;;;;;;;;;;;;;;;4941964;28;20005;-84
2022/09/09 01:16:23;;;;;;;;;;;;;;;;;;4945336;28;19915;-84
2022/09/09 01:18:49;;;;;;;;;;;;;;;;;;4941983;28;19919;-84
2022/09/09 01:21:14;;;;;;;;;;;;;;;;;;4937705;28;20367;-84
2022/09/09 01:23:39;;;;;;;;;;;;;;;;;;4939288;28;20407;-84
2022/09/09 01:26:04;;;;;;;;;;;;;;;;;;4936295;28;19923;-84
2022/09/09 01:28:30;;;;;;;;;;;;;;;;;;4946151;28;20251;-84
2022/09/09 01:30:55;;;;;;;;;;;;;;;;;;4943308;28;20387;-84
2022/09/09 01:33:20;;;;;;;;;;;;;;;;;;4939399;28;19977;-84
2022/09/09 01:35:46;;;;;;;;;;;;;;;;;;4939398;28;19997;-84
2022/09/09 01:38:11;;;;;;;;;;;;;;;;;;4938675;28;19923;-84
2022/09/09 01:40:36;;;;;;;;;;;;;;;;;;4936666;28;20416;-84
2022/09/09 01:43:01;;;;;;;;;;;;;;;;;;4937208;28;19925;-84
2022/09/09 01:45:26;;;;;;;;;;;;;;;;;;4940564;28;19918;-84
2022/09/09 01:47:52;;;;;;;;;;;;;;;;;;4941727;28;20030;-84
2022/09/09 01:50:17;;;;;;;;;;;;;;;;;;4942222;28;19942;-84
2022/09/09 01:52:42;;;;;;;;;;;;;;;;;;4942297;28;19925;-84
2022/09/09 01:55:07;;;;;;;;;;;;;;;;;;4941443;28;19977;-84
2022/09/09 01:57:32;;;;;;;;;;;;;;;;;;4941156;28;19914;-84
2022/09/09 01:59:57;;;;;;;;;;;;;;;;;;4942357;28;21121;-84
2022/09/09 02:02:23;;;;;;;;;;;;;;;;;;4937245;28;20289;-84
2022/09/09 02:04:48;;;;;;;;;;;;;;;;;;4941665;28;20120;-84
2022/09/09 02:07:13;;;;;;;;;;;;;;;;;;4942555;28;19922;-84
2022/09/09 02:09:38;;;;;;;;;;;;;;;;;;4945317;28;19919;-84
2022/09/09 02:12:04;;;;;;;;;;;;;;;;;;4938365;28;19922;-84
2022/09/09 02:14:29;;;;;;;;;;;;;;;;;;4946961;28;19963;-84
2022/09/09 02:16:54;;;;;;;;;;;;;;;;;;4940719;28;19969;-84
2022/09/09 02:19:23;;;;;;;;;;;;;;;;;;4943771;28;19922;-84
2022/09/09 02:21:48;;;;;;;;;;;;;;;;;;4942954;28;19947;-84
2022/09/09 02:24:14;;;;;;;;;;;;;;;;;;4942758;28;20258;-84
2022/09/09 02:26:40;;;;;;;;;;;;;;;;;;4943638;28;19921;-84
2022/09/09 02:29:05;;;;;;;;;;;;;;;;;;4943989;28;19933;-84
2022/09/09 02:31:30;;;;;;;;;;;;;;;;;;4939155;28;19922;-84
2022/09/09 02:33:55;;;;;;;;;;;;;;;;;;4945119;28;19972;-84
2022/09/09 02:36:21;;;;;;;;;;;;;;;;;;4943722;28;20389;-84
2022/09/09 02:38:50;;;;;;;;;;;;;;;;;;4943320;28;19922;-83
2022/09/09 02:41:15;;;;;;;;;;;;;;;;;;4946367;28;19919;-84
2022/09/09 02:43:40;;;;;;;;;;;;;;;;;;4943129;28;19940;-84
2022/09/09 02:46:05;;;;;;;;;;;;;;;;;;4941622;28;19919;-84
2022/09/09 02:48:31;;;;;;;;;;;;;;;;;;4944290;28;20325;-84
2022/09/09 02:50:56;;;;;;;;;;;;;;;;;;4946325;28;19953;-83
2022/09/09 02:53:21;;;;;;;;;;;;;;;;;;4950263;28;20001;-84
2022/09/09 02:55:46;;;;;;;;;;;;;;;;;;4947894;28;20293;-84
2022/09/09 02:58:11;;;;;;;;;;;;;;;;;;4943281;28;19997;-84
2022/09/09 03:00:37;;;;;;;;;;;;;;;;;;4942409;28;20399;-84
2022/09/09 03:03:02;;;;;;;;;;;;;;;;;;4947358;28;19930;-84
2022/09/09 03:05:27;;;;;;;;;;;;;;;;;;4947234;28;20002;-84
2022/09/09 03:07:52;;;;;;;;;;;;;;;;;;4943574;28;20369;-84
2022/09/09 03:10:18;;;;;;;;;;;;;;;;;;4948086;28;19997;-83
2022/09/09 03:12:43;;;;;;;;;;;;;;;;;;4946168;28;19919;-84
2022/09/09 03:15:08;;;;;;;;;;;;;;;;;;4945114;28;19997;-84
2022/09/09 03:17:34;;;;;;;;;;;;;;;;;;4940243;28;19923;-84
2022/09/09 03:19:59;;;;;;;;;;;;;;;;;;4945086;28;19922;-84
2022/09/09 03:22:25;;;;;;;;;;;;;;;;;;4943608;28;20010;-84
2022/09/09 03:24:50;;;;;;;;;;;;;;;;;;4947976;28;19922;-84
2022/09/09 03:27:15;;;;;;;;;;;;;;;;;;4946102;28;20342;-84
2022/09/09 03:29:40;;;;;;;;;;;;;;;;;;4943164;28;19918;-84
2022/09/09 03:32:06;;;;;;;;;;;;;;;;;;4942281;28;20389;-84
2022/09/09 03:34:31;;;;;;;;;;;;;;;;;;4934437;28;20380;-84
2022/09/09 03:36:56;;;;;;;;;;;;;;;;;;4939231;28;19926;-84
2022/09/09 03:39:21;;;;;;;;;;;;;;;;;;4944179;28;19922;-84
2022/09/09 03:41:48;;;;;;;;;;;;;;;;;;4948758;28;20017;-83
2022/09/09 03:44:13;;;;;;;;;;;;;;;;;;4942357;28;19915;-84
2022/09/09 03:46:38;;;;;;;;;;;;;;;;;;4940252;28;19910;-84
2022/09/09 03:49:03;;;;;;;;;;;;;;;;;;4945986;28;19925;-84
2022/09/09 03:51:29;;;;;;;;;;;;;;;;;;4939858;28;19914;-84
2022/09/09 03:53:57;;;;;;;;;;;;;;;;;;4938236;28;19958;-84
2022/09/09 03:56:23;;;;;;;;;;;;;;;;;;4943376;28;19983;-84
2022/09/09 03:58:48;;;;;;;;;;;;;;;;;;4938930;28;20444;-85
2022/09/09 04:01:13;;;;;;;;;;;;;;;;;;4942882;28;19918;-84
2022/09/09 04:03:38;;;;;;;;;;;;;;;;;;4941783;28;20344;-84
2022/09/09 04:06:03;;;;;;;;;;;;;;;;;;4942866;28;20162;-84
2022/09/09 04:08:30;;;;;;;;;;;;;;;;;;4945029;28;19914;-85
2022/09/09 04:10:57;;;;;;;;;;;;;;;;;;4943725;28;19915;-84
2022/09/09 04:13:22;;;;;;;;;;;;;;;;;;4938840;28;19915;-84
2022/09/09 04:15:47;;;;;;;;;;;;;;;;;;4944300;28;19919;-84
2022/09/09 04:18:13;;;;;;;;;;;;;;;;;;4939693;28;19921;-84
2022/09/09 04:20:38;;;;;;;;;;;;;;;;;;4941196;28;20336;-85
2022/09/09 04:23:04;;;;;;;;;;;;;;;;;;4936950;28;20021;-85
2022/09/09 04:25:29;;;;;;;;;;;;;;;;;;4941818;28;19937;-84
2022/09/09 04:27:54;;;;;;;;;;;;;;;;;;4939423;28;19937;-84
2022/09/09 04:30:19;;;;;;;;;;;;;;;;;;4947737;28;19918;-84
2022/09/09 04:32:45;;;;;;;;;;;;;;;;;;4930993;28;19915;-84
2022/09/09 04:35:10;;;;;;;;;;;;;;;;;;4938451;28;19926;-84
2022/09/09 04:37:35;;;;;;;;;;;;;;;;;;4941708;28;19914;-84
2022/09/09 04:40:02;;;;;;;;;;;;;;;;;;4939407;28;19930;-84
2022/09/09 04:42:27;;;;;;;;;;;;;;;;;;4935956;28;19981;-84
2022/09/09 04:44:52;;;;;;;;;;;;;;;;;;4942944;28;20332;-84
2022/09/09 04:47:17;;;;;;;;;;;;;;;;;;4942003;28;19923;-84
2022/09/09 04:49:43;;;;;;;;;;;;;;;;;;4941302;28;19925;-84
2022/09/09 04:52:08;;;;;;;;;;;;;;;;;;4935412;28;20523;-84
2022/09/09 04:54:33;;;;;;;;;;;;;;;;;;4938363;28;19952;-84
2022/09/09 04:56:58;;;;;;;;;;;;;;;;;;4939281;28;21377;-84
2022/09/09 04:59:23;;;;;;;;;;;;;;;;;;4942684;28;19958;-84
2022/09/09 05:01:50;;;;;;;;;;;;;;;;;;4941532;28;19927;-84
2022/09/09 05:04:15;;;;;;;;;;;;;;;;;;4941367;28;20033;-84
2022/09/09 05:06:42;;;;;;;;;;;;;;;;;;4940338;28;20463;-84
2022/09/09 05:09:07;;;;;;;;;;;;;;;;;;4935289;28;19925;-84
2022/09/09 05:11:32;;;;;;;;;;;;;;;;;;4925935;28;19922;-84
2022/09/09 05:13:57;;;;;;;;;;;;;;;;;;4936713;28;20384;-83
2022/09/09 05:16:22;;;;;;;;;;;;;;;;;;4938942;28;19973;-84
2022/09/09 05:18:48;;;;;;;;;;;;;;;;;;4940838;28;19918;-84
2022/09/09 05:21:14;;;;;;;;;;;;;;;;;;4939236;28;19923;-84
2022/09/09 05:23:41;;;;;;;;;;;;;;;;;;4932247;28;20202;-84
2022/09/09 05:26:07;;;;;;;;;;;;;;;;;;4936039;28;20421;-84
2022/09/09 05:28:32;;;;;;;;;;;;;;;;;;4939435;28;19925;-84
2022/09/09 05:30:57;;;;;;;;;;;;;;;;;;4936309;28;19919;-84
2022/09/09 05:33:23;;;;;;;;;;;;;;;;;;4936204;28;19961;-84
2022/09/09 05:35:48;;;;;;;;;;;;;;;;;;4954016;23;19981;-89
2022/09/09 05:38:14;;;;;;;;;;;;;;;;;;4947035;28;20292;-89
2022/09/09 05:40:39;;;;;;;;;;;;;;;;;;4946773;28;19922;-91
2022/09/09 05:43:04;;;;;;;;;;;;;;;;;;4945576;28;19922;-89
2022/09/09 05:45:29;;;;;;;;;;;;;;;;;;4946328;28;19937;-89
2022/09/09 05:47:54;;;;;;;;;;;;;;;;;;4944058;28;19918;-90
2022/09/09 05:50:20;;;;;;;;;;;;;;;;;;4945382;28;20190;-89
2022/09/09 05:52:47;;;;;;;;;;;;;;;;;;4946361;28;19926;-90
2022/09/09 05:55:13;;;;;;;;;;;;;;;;;;4943656;28;20415;-89
2022/09/09 05:57:39;;;;;;;;;;;;;;;;;;4947669;28;19950;-89
2022/09/09 06:00:04;;;;;;;;;;;;;;;;;;4944776;28;19919;-89
2022/09/09 06:02:29;;;;;;;;;;;;;;;;;;4952778;28;19918;-89
2022/09/09 06:04:55;;;;;;;;;;;;;;;;;;4948852;28;19919;-90
2022/09/09 06:07:23;;;;;;;;;;;;;;;;;;4943604;28;19989;-89
2022/09/09 06:15:30;;;;;;;;;;;;;;;;;;4936793;28;19982;-89
2022/09/09 06:18:07;;;;;;;;;;;;;;;;;;;;;
2022/09/09 06:20:35;;;;;;;;;;;;;;;;;;4944917;28;19911;-89
2022/09/09 06:25:53;;;;;;;;;;;;;;;;;;4936364;28;19925;-89
2022/09/09 06:28:19;;;;;;;;;;;;;;;;;;4949383;28;19910;-89
2022/09/09 06:30:44;;;;;;;;;;;;;;;;;;4942255;28;19919;-90
2022/09/09 06:33:20;;;;;;;;;;;;;;;;;;4950759;28;19922;-89
2022/09/09 06:35:46;;;;;;;;;;;;;;;;;;4950563;28;19930;-90
2022/09/09 06:38:11;;;;;;;;;;;;;;;;;;4951007;28;19973;-89
2022/09/09 06:40:40;;;;;;;;;;;;;;;;;;4939464;28;19949;-91
2022/09/09 06:43:05;;;;;;;;;;;;;;;;;;4946976;28;19919;-91
2022/09/09 06:45:31;;;;;;;;;;;;;;;;;;4945969;28;20277;-89
2022/09/09 06:47:56;;;;;;;;;;;;;;;;;;4948745;28;19973;-90
2022/09/09 06:50:21;;;;;;;;;;;;;;;;;;4947490;28;19929;-89
2022/09/09 06:52:47;;;;;;;;;;;;;;;;;;4945316;28;19914;-89
2022/09/09 06:55:12;;;;;;;;;;;;;;;;;;4946696;28;19931;-90
2022/09/09 06:57:38;;;;;;;;;;;;;;;;;;4953028;28;19986;-90
2022/09/09 07:00:03;;;;;;;;;;;;;;;;;;4962606;28;19933;-90
2022/09/09 07:02:28;;;;;;;;;;;;;;;;;;4961493;28;19925;-90
2022/09/09 07:04:53;;;;;;;;;;;;;;;;;;4955156;28;19998;-87
2022/09/09 07:07:22;;;;;;;;;;;;;;;;;;4948045;29;20013;-87
2022/09/09 07:09:49;;;;;;;;;;;;;;;;;;4952890;28;19919;-87
2022/09/09 07:12:14;;;;;;;;;;;;;;;;;;4952844;28;19953;-88
2022/09/09 07:14:39;;;;;;;;;;;;;;;;;;4946153;28;19949;-87
2022/09/09 07:17:04;;;;;;;;;;;;;;;;;;4950335;28;19964;-87
2022/09/09 07:19:29;;;;;;;;;;;;;;;;;;4949995;28;19919;-87
2022/09/09 07:21:54;;;;;;;;;;;;;;;;;;4942253;28;19955;-87
2022/09/09 07:24:20;;;;;;;;;;;;;;;;;;4949938;28;20303;-86
2022/09/09 07:26:46;;;;;;;;;;;;;;;;;;4952226;28;19919;-86
2022/09/09 07:29:13;;;;;;;;;;;;;;;;;;4951147;28;19966;-86
2022/09/09 07:31:39;;;;;;;;;;;;;;;;;;4947617;28;19914;-87
2022/09/09 07:34:04;;;;;;;;;;;;;;;;;;4955347;28;19978;-86
2022/09/09 07:36:30;;;;;;;;;;;;;;;;;;4948705;28;19918;-86
2022/09/09 07:38:55;;;;;;;;;;;;;;;;;;4949298;28;20419;-87
2022/09/09 07:41:20;;;;;;;;;;;;;;;;;;4943823;28;19925;-87
2022/09/09 07:43:45;;;;;;;;;;;;;;;;;;4949714;28;20317;-87
2022/09/09 07:46:10;;;;;;;;;;;;;;;;;;4947323;28;19930;-87
2022/09/09 07:48:35;;;;;;;;;;;;;;;;;;4950361;28;20388;-87
2022/09/09 07:51:01;;;;;;;;;;;;;;;;;;4945202;28;20012;-87
2022/09/09 07:53:26;;;;;;;;;;;;;;;;;;4943529;28;19963;-87
2022/09/09 07:55:51;;;;;;;;;;;;;;;;;;4945244;28;19922;-88
2022/09/09 07:58:16;;;;;;;;;;;;;;;;;;4926274;29;19946;-87
2022/09/09 08:00:43;;;;;;;;;;;;;;;;;;4944539;28;20186;-87
2022/09/09 08:03:08;;;;;;;;;;;;;;;;;;4946597;28;19973;-88
2022/09/09 08:05:33;;;;;;;;;;;;;;;;;;4947362;28;19958;-87
2022/09/09 08:08:00;;;;;;;;;;;;;;;;;;4944851;28;19926;-87
2022/09/09 08:10:25;;;;;;;;;;;;;;;;;;4941014;28;19921;-87
2022/09/09 08:12:50;;;;;;;;;;;;;;;;;;4946143;28;20208;-88
2022/09/09 08:15:15;;;;;;;;;;;;;;;;;;4942010;28;19966;-87
2022/09/09 08:17:40;;;;;;;;;;;;;;;;;;4944001;28;20289;-87
2022/09/09 08:20:06;;;;;;;;;;;;;;;;;;4947400;28;20009;-87
2022/09/09 08:22:31;;;;;;;;;;;;;;;;;;4930562;29;20001;-87
2022/09/09 08:24:57;;;;;;;;;;;;;;;;;;4942079;28;19921;-87
2022/09/09 08:27:22;;;;;;;;;;;;;;;;;;4946166;28;19914;-87
2022/09/09 08:29:47;;;;;;;;;;;;;;;;;;4947882;28;19925;-87
2022/09/09 08:32:13;;;;;;;;;;;;;;;;;;4943524;28;19926;-87
2022/09/09 08:34:38;;;;;;;;;;;;;;;;;;4943921;28;20336;-86
2022/09/09 08:37:03;;;;;;;;;;;;;;;;;;4926355;28;19919;-86
2022/09/09 08:39:28;;;;;;;;;;;;;;;;;;4951508;29;19914;-86
2022/09/09 08:41:53;;;;;;;;;;;;;;;;;;4951510;28;19918;-86
2022/09/09 08:44:18;;;;;;;;;;;;;;;;;;4950676;28;19914;-87
2022/09/09 08:46:44;;;;;;;;;;;;;;;;;;4950180;28;21350;-88
2022/09/09 08:49:09;;;;;;;;;;;;;;;;;;4955064;28;19928;-88
2022/09/09 08:51:34;;;;;;;;;;;;;;;;;;4955858;28;19915;-88
2022/09/09 08:53:59;;;;;;;;;;;;;;;;;;4951490;28;19915;-87
2022/09/09 08:56:25;;;;;;;;;;;;;;;;;;4953805;28;20017;-88
2022/09/09 08:58:50;;;;;;;;;;;;;;;;;;4951598;28;19914;-88
2022/09/09 09:01:16;;;;;;;;;;;;;;;;;;4947268;28;19923;-87
2022/09/09 09:03:41;;;;;;;;;;;;;;;;;;4947351;28;19922;-88
2022/09/09 09:06:06;;;;;;;;;;;;;;;;;;4945457;28;19926;-88
2022/09/09 09:08:32;;;;;;;;;;;;;;;;;;4953449;28;20526;-88
2022/09/09 09:10:57;;;;;;;;;;;;;;;;;;4947507;28;19922;-88
2022/09/09 09:13:22;;;;;;;;;;;;;;;;;;4942216;28;20518;-87
2022/09/09 09:18:33;;;;;;;;;;;;;;;;;;4923031;29;20050;-87
2022/09/09 09:23:59;;;;;;;;;;;;;;;;;;4897612;29;19990;-87
2022/09/09 09:26:24;;;;;;;;;;;;;;;;;;4935249;28;19914;-87
2022/09/09 09:28:50;;;;;;;;;;;;;;;;;;4947447;28;19918;-88
2022/09/09 09:31:15;;;;;;;;;;;;;;;;;;4944375;28;19923;-88
2022/09/09 09:33:46;;;;;;;;;;;;;;;;;;4939275;28;19922;-88
2022/09/09 09:36:13;;;;;;;;;;;;;;;;;;4934470;28;19986;-87
2022/09/09 09:38:39;;;;;;;;;;;;;;;;;;4944430;28;20390;-87
2022/09/09 09:41:05;;;;;;;;;;;;;;;;;;4947336;28;20013;-86
2022/09/09 09:43:30;;;;;;;;;;;;;;;;;;4950256;28;20047;-87
2022/09/09 09:45:57;;;;;;;;;;;;;;;;;;4941326;28;19942;-87
2022/09/09 09:48:22;;;;;;;;;;;;;;;;;;4948184;28;19921;-88
2022/09/09 09:50:48;;;;;;;;;;;;;;;;;;4939118;28;20371;-88
2022/09/09 09:53:13;;;;;;;;;;;;;;;;;;4949614;28;19915;-86
2022/09/09 09:55:38;;;;;;;;;;;;;;;;;;4951038;28;19918;-87
2022/09/09 09:58:03;;;;;;;;;;;;;;;;;;4943918;28;19960;-86
2022/09/09 10:00:29;;;;;;;;;;;;;;;;;;4945239;28;19918;-88
2022/09/09 10:02:54;;;;;;;;;;;;;;;;;;4943425;28;19922;-88
2022/09/09 10:05:20;;;;;;;;;;;;;;;;;;4946564;28;20382;-88
2022/09/09 10:07:45;;;;;;;;;;;;;;;;;;4941663;28;20408;-87
2022/09/09 10:10:11;;;;;;;;;;;;;;;;;;4943154;28;20032;-87
2022/09/09 10:12:36;;;;;;;;;;;;;;;;;;4942971;28;20066;-87
2022/09/09 10:15:01;;;;;;;;;;;;;;;;;;4948927;28;19918;-87
2022/09/09 10:17:27;;;;;;;;;;;;;;;;;;4942813;28;20395;-87
2022/09/09 10:19:52;;;;;;;;;;;;;;;;;;4947139;28;20265;-87
2022/09/09 10:22:17;;;;;;;;;;;;;;;;;;4939742;28;19929;-87
2022/09/09 10:24:44;;;;;;;;;;;;;;;;;;4945404;28;20293;-88
2022/09/09 10:27:09;;;;;;;;;;;;;;;;;;4947711;28;19921;-88
2022/09/09 10:29:34;;;;;;;;;;;;;;;;;;4941465;28;19914;-87
2022/09/09 10:31:59;;;;;;;;;;;;;;;;;;4946371;28;20262;-88
2022/09/09 10:34:24;;;;;;;;;;;;;;;;;;4951047;28;19919;-87
2022/09/09 10:36:50;;;;;;;;;;;;;;;;;;4952811;28;19929;-87
2022/09/09 10:39:15;;;;;;;;;;;;;;;;;;4951014;28;20353;-87
2022/09/09 10:41:40;;;;;;;;;;;;;;;;;;4948203;28;19918;-87
2022/09/09 10:44:06;;;;;;;;;;;;;;;;;;4952747;28;20001;-87
2022/09/09 10:46:32;;;;;;;;;;;;;;;;;;4952048;28;19921;-90
2022/09/09 10:48:57;;;;;;;;;;;;;;;;;;4947952;28;19915;-88
2022/09/09 10:51:22;;;;;;;;;;;;;;;;;;4952169;28;20387;-87
2022/09/09 10:53:48;;;;;;;;;;;;;;;;;;4950694;28;19923;-88
2022/09/09 10:56:14;;;;;;;;;;;;;;;;;;4954366;28;19925;-87
2022/09/09 10:58:40;;;;;;;;;;;;;;;;;;4949342;28;19918;-90
2022/09/09 11:01:07;;;;;;;;;;;;;;;;;;4944746;28;21274;-88
2022/09/09 11:03:33;;;;;;;;;;;;;;;;;;4945387;28;20377;-87
2022/09/09 11:05:58;;;;;;;;;;;;;;;;;;4949001;28;19914;-85
2022/09/09 11:08:23;;;;;;;;;;;;;;;;;;4947046;28;19925;-88
2022/09/09 11:10:48;;;;;;;;;;;;;;;;;;4953207;28;19931;-87
2022/09/09 11:13:15;;;;;;;;;;;;;;;;;;4954028;28;20340;-88
2022/09/09 11:15:41;;;;;;;;;;;;;;;;;;4952074;28;19966;-86
2022/09/09 11:18:06;;;;;;;;;;;;;;;;;;4948198;28;19958;-87
2022/09/09 11:20:32;;;;;;;;;;;;;;;;;;4949206;28;20412;-87
2022/09/09 11:22:57;;;;;;;;;;;;;;;;;;4948523;28;20025;-85
2022/09/09 11:25:22;;;;;;;;;;;;;;;;;;4947056;28;19993;-84
2022/09/09 11:27:47;;;;;;;;;;;;;;;;;;4948867;28;19923;-85
2022/09/09 11:30:12;;;;;;;;;;;;;;;;;;4950626;28;19923;-85
2022/09/09 11:32:39;;;;;;;;;;;;;;;;;;4946836;28;20380;-83
2022/09/09 11:55:45;;;;;;;;;;;;;;;;;;4971807;28;19926;-90
2022/09/09 11:58:20;;;;;;;;;;;;;;;;;;4989518;28;19910;-90
2022/09/09 12:00:45;;;;;;;;;;;;;;;;;;4994764;28;19942;-91
2022/09/09 12:05:57;;;;;;;;;;;;;;;;;;5029832;23;20360;-87
2022/09/09 12:14:12;;;;;;;;;;;;;;;;;;;;;
2022/09/09 12:16:48;;;;;;;;;;;;;;;;;;;;;
2022/09/09 12:25:15;;;;;;;;;;;;;;;;;;;;;
2022/09/09 12:27:46;;;;;;;;;;;;;;;;;;4922826;29;19921;-84
2022/09/09 12:36:15;;;;;;;;;;;;;;;;;;;;;
2022/09/09 12:38:40;;;;;;;;;;;;;;;;;;4921403;29;19915;-85
2022/09/09 12:41:05;;;;;;;;;;;;;;;;;;4925168;29;20397;-85
2022/09/09 12:43:31;;;;;;;;;;;;;;;;;;4950761;28;20402;-85
2022/09/09 12:45:57;;;;;;;;;;;;;;;;;;4962017;28;20581;-85
2022/09/09 12:48:22;;;;;;;;;;;;;;;;;;4956397;28;20002;-84
2022/09/09 12:50:47;;;;;;;;;;;;;;;;;;4959746;28;20247;-85
2022/09/09 12:53:15;;;;;;;;;;;;;;;;;;4955936;28;19925;-85
2022/09/09 12:55:40;;;;;;;;;;;;;;;;;;4962178;28;19918;-85
2022/09/09 12:58:05;;;;;;;;;;;;;;;;;;4964238;28;19930;-85
2022/09/09 13:00:31;;;;;;;;;;;;;;;;;;4960837;28;20384;-85
2022/09/09 13:02:56;;;;;;;;;;;;;;;;;;4959759;28;19926;-85
2022/09/09 13:05:21;;;;;;;;;;;;;;;;;;4960780;28;19937;-84
2022/09/09 13:07:47;;;;;;;;;;;;;;;;;;4965804;28;19925;-84
2022/09/09 13:10:12;;;;;;;;;;;;;;;;;;4950079;28;20032;-85
2022/09/09 13:12:37;;;;;;;;;;;;;;;;;;4964674;28;19922;-85
2022/09/09 13:15:03;;;;;;;;;;;;;;;;;;4956504;28;20395;-85
2022/09/09 13:17:31;;;;;;;;;;;;;;;;;;4957148;28;21136;-84
2022/09/09 13:19:56;;;;;;;;;;;;;;;;;;4955342;28;19914;-85
2022/09/09 13:22:21;;;;;;;;;;;;;;;;;;4960144;28;19918;-84
2022/09/09 13:24:46;;;;;;;;;;;;;;;;;;4962981;28;19918;-84
2022/09/09 13:27:12;;;;;;;;;;;;;;;;;;4961362;28;19926;-84
2022/09/09 13:29:37;;;;;;;;;;;;;;;;;;4961472;28;20028;-84
2022/09/09 13:32:02;;;;;;;;;;;;;;;;;;4957850;28;19914;-84
2022/09/09 13:34:27;;;;;;;;;;;;;;;;;;4946398;28;19914;-84
2022/09/09 13:36:52;;;;;;;;;;;;;;;;;;4966051;28;19922;-85
2022/09/09 13:39:18;;;;;;;;;;;;;;;;;;4961386;28;20356;-84
2022/09/09 13:41:46;;;;;;;;;;;;;;;;;;4962269;28;20418;-85
2022/09/09 13:44:13;;;;;;;;;;;;;;;;;;4962793;28;19913;-84
2022/09/09 13:46:40;;;;;;;;;;;;;;;;;;4965324;28;19922;-85
2022/09/09 13:49:05;;;;;;;;;;;;;;;;;;4963548;28;19918;-84
2022/09/09 13:51:30;;;;;;;;;;;;;;;;;;4957123;28;19918;-84
2022/09/09 13:53:55;;;;;;;;;;;;;;;;;;4959201;28;19918;-85
2022/09/09 13:56:20;;;;;;;;;;;;;;;;;;4962191;28;19918;-85
2022/09/09 13:58:46;;;;;;;;;;;;;;;;;;4962245;28;20327;-85
2022/09/09 14:01:11;;;;;;;;;;;;;;;;;;4964562;28;19918;-84
2022/09/09 14:03:36;;;;;;;;;;;;;;;;;;4959726;28;20362;-84
2022/09/09 14:06:02;;;;;;;;;;;;;;;;;;4961758;28;19926;-84
2022/09/09 14:08:32;;;;;;;;;;;;;;;;;;4961877;28;20502;-84
2022/09/09 14:10:59;;;;;;;;;;;;;;;;;;4953613;28;19945;-85
2022/09/09 14:13:24;;;;;;;;;;;;;;;;;;4958926;28;21293;-85
2022/09/09 14:15:49;;;;;;;;;;;;;;;;;;4958570;28;19940;-86
2022/09/09 14:18:14;;;;;;;;;;;;;;;;;;4961681;28;19924;-85
2022/09/09 14:20:40;;;;;;;;;;;;;;;;;;4961667;28;20364;-85
2022/09/09 14:23:05;;;;;;;;;;;;;;;;;;4966699;28;19928;-85
2022/09/09 14:25:31;;;;;;;;;;;;;;;;;;4961477;28;19967;-85
2022/09/09 14:27:56;;;;;;;;;;;;;;;;;;4966910;28;19918;-85
2022/09/09 14:30:21;;;;;;;;;;;;;;;;;;4964227;28;20339;-87
2022/09/09 14:32:47;;;;;;;;;;;;;;;;;;4971644;28;19922;-86
2022/09/09 14:35:12;;;;;;;;;;;;;;;;;;4960765;28;19911;-86
2022/09/09 14:37:38;;;;;;;;;;;;;;;;;;4960773;28;19922;-86
2022/09/09 14:40:04;;;;;;;;;;;;;;;;;;4961313;28;19996;-85
2022/09/09 14:42:30;;;;;;;;;;;;;;;;;;4960458;28;20017;-86
2022/09/09 14:44:55;;;;;;;;;;;;;;;;;;4964463;28;19920;-86
2022/09/09 14:47:20;;;;;;;;;;;;;;;;;;4962521;28;20210;-86
2022/09/09 14:49:45;;;;;;;;;;;;;;;;;;4964268;28;20356;-86
2022/09/09 14:52:11;;;;;;;;;;;;;;;;;;4962314;28;20000;-86
2022/09/09 14:54:36;;;;;;;;;;;;;;;;;;4956785;28;19914;-86
2022/09/09 14:57:02;;;;;;;;;;;;;;;;;;4960363;28;19933;-85
2022/09/09 14:59:27;;;;;;;;;;;;;;;;;;4960224;28;20402;-86
2022/09/09 15:01:52;;;;;;;;;;;;;;;;;;4961583;28;20402;-86
2022/09/09 15:04:18;;;;;;;;;;;;;;;;;;4961312;28;19929;-86
2022/09/09 15:06:46;;;;;;;;;;;;;;;;;;4959050;28;19926;-86
2022/09/09 15:09:12;;;;;;;;;;;;;;;;;;4941390;28;20503;-86
2022/09/09 15:11:37;;;;;;;;;;;;;;;;;;4958470;28;19934;-86
2022/09/09 15:14:02;;;;;;;;;;;;;;;;;;4962226;28;20020;-86
2022/09/09 15:16:27;;;;;;;;;;;;;;;;;;4957653;28;20389;-86
2022/09/09 15:18:54;;;;;;;;;;;;;;;;;;4969752;28;19914;-86
2022/09/09 15:21:19;;;;;;;;;;;;;;;;;;4965540;28;19920;-86
2022/09/09 15:23:44;;;;;;;;;;;;;;;;;;4955854;28;19997;-85
2022/09/09 15:26:09;;;;;;;;;;;;;;;;;;4966276;28;19917;-86
2022/09/09 15:28:37;;;;;;;;;;;;;;;;;;4965123;28;19921;-86
2022/09/09 15:31:02;;;;;;;;;;;;;;;;;;4972222;28;19920;-85
2022/09/09 15:33:28;;;;;;;;;;;;;;;;;;4960163;28;20017;-85
2022/09/09 15:35:53;;;;;;;;;;;;;;;;;;4969901;28;20077;-86
2022/09/09 15:38:19;;;;;;;;;;;;;;;;;;4968604;28;20016;-85
2022/09/09 15:40:44;;;;;;;;;;;;;;;;;;4971675;28;19914;-85
2022/09/09 15:43:10;;;;;;;;;;;;;;;;;;4960800;28;19922;-86
2022/09/09 15:45:35;;;;;;;;;;;;;;;;;;4962104;28;19914;-85
2022/09/09 15:48:00;;;;;;;;;;;;;;;;;;4970784;28;19985;-86
2022/09/09 15:50:26;;;;;;;;;;;;;;;;;;4969638;28;19972;-85
2022/09/09 15:52:52;;;;;;;;;;;;;;;;;;4965397;28;19993;-85
2022/09/09 15:55:17;;;;;;;;;;;;;;;;;;4962270;28;20388;-85
2022/09/09 15:57:42;;;;;;;;;;;;;;;;;;4971046;28;20399;-85
2022/09/09 16:00:08;;;;;;;;;;;;;;;;;;4974772;28;19914;-85
2022/09/09 16:02:33;;;;;;;;;;;;;;;;;;4962441;28;19984;-85
2022/09/09 16:05:00;;;;;;;;;;;;;;;;;;4973393;28;19977;-85
2022/09/09 16:07:26;;;;;;;;;;;;;;;;;;4968335;28;20433;-88
2022/09/09 16:09:52;;;;;;;;;;;;;;;;;;4967115;28;19965;-87
2022/09/09 16:12:17;;;;;;;;;;;;;;;;;;4957261;28;20009;-87
2022/09/09 16:14:43;;;;;;;;;;;;;;;;;;4969097;28;20341;-88
2022/09/09 16:17:08;;;;;;;;;;;;;;;;;;4959927;28;19914;-87
2022/09/09 16:19:34;;;;;;;;;;;;;;;;;;4957251;28;19922;-87
2022/09/09 16:21:59;;;;;;;;;;;;;;;;;;4964970;28;19925;-87
2022/09/09 16:24:24;;;;;;;;;;;;;;;;;;4961710;28;20228;-88
2022/09/09 16:26:50;;;;;;;;;;;;;;;;;;4964992;28;19929;-87
2022/09/09 16:29:15;;;;;;;;;;;;;;;;;;4959530;28;19930;-87
2022/09/09 16:31:40;;;;;;;;;;;;;;;;;;4967520;28;20280;-88
2022/09/09 16:34:05;;;;;;;;;;;;;;;;;;4973420;28;19918;-87
2022/09/09 16:36:31;;;;;;;;;;;;;;;;;;4962062;28;20400;-87
2022/09/09 16:38:57;;;;;;;;;;;;;;;;;;4964927;28;19922;-88
2022/09/09 16:41:22;;;;;;;;;;;;;;;;;;4959340;28;19921;-87
2022/09/09 16:43:47;;;;;;;;;;;;;;;;;;4966379;28;19914;-88
2022/09/09 16:46:13;;;;;;;;;;;;;;;;;;4972391;28;19918;-87
2022/09/09 16:48:38;;;;;;;;;;;;;;;;;;4968938;28;19914;-87
2022/09/09 16:51:04;;;;;;;;;;;;;;;;;;4958819;28;19929;-87
2022/09/09 16:53:29;;;;;;;;;;;;;;;;;;4959661;28;20418;-87
2022/09/09 16:55:55;;;;;;;;;;;;;;;;;;4974932;28;19918;-88
2022/09/09 16:58:20;;;;;;;;;;;;;;;;;;4961225;28;19914;-88
2022/09/09 17:00:47;;;;;;;;;;;;;;;;;;4955981;28;19914;-87
2022/09/09 17:03:12;;;;;;;;;;;;;;;;;;4967286;28;20372;-87
2022/09/09 17:05:37;;;;;;;;;;;;;;;;;;4964661;28;19922;-88
2022/09/09 17:08:02;;;;;;;;;;;;;;;;;;4970087;28;19918;-86
2022/09/09 17:10:27;;;;;;;;;;;;;;;;;;4954152;28;19958;-87
2022/09/09 17:12:52;;;;;;;;;;;;;;;;;;4964558;28;19918;-88
2022/09/09 17:15:18;;;;;;;;;;;;;;;;;;4962841;28;19996;-87
2022/09/09 17:17:45;;;;;;;;;;;;;;;;;;4958021;28;20002;-87
2022/09/09 17:20:10;;;;;;;;;;;;;;;;;;4964265;28;19929;-87
2022/09/09 17:22:35;;;;;;;;;;;;;;;;;;4966232;28;20021;-87
2022/09/09 17:25:00;;;;;;;;;;;;;;;;;;4963112;28;20376;-87
2022/09/09 17:27:25;;;;;;;;;;;;;;;;;;4955022;28;20403;-87
2022/09/09 17:29:51;;;;;;;;;;;;;;;;;;4962746;28;19929;-87
2022/09/09 17:32:16;;;;;;;;;;;;;;;;;;4963551;28;19926;-87